sensor_id;sensor_type;location;lat;lon;timestamp;P1;durP1;ratioP1;P2;durP2;ratioP2
6101;SDS011;3081;50.584;7.032;2023-01-26T00:01:51;16.17;;;7.70;;
6101;SDS011;3081;50.584;7.032;2023-01-26T00:04:19;10.97;;;6.87;;
6101;SDS011;3081;50.584;7.032;2023-01-26T00:06:47;12.80;;;4.10;;
6101;SDS011;3081;50.584;7.032;2023-01-26T00:09:14;16.50;;;7.77;;
6101;SDS011;3081;50.584;7.032;2023-01-26T00:11:41;12.83;;;6.90;;
6101;SDS011;3081;50.584;7.032;2023-01-26T00:14:08;11.73;;;5.40;;
6101;SDS011;3081;50.584;7.032;2023-01-26T00:16:35;15.43;;;7.60;;
6101;SDS011;3081;50.584;7.032;2023-01-26T00:19:02;17.90;;;7.53;;
6101;SDS011;3081;50.584;7.032;2023-01-26T00:21:29;17.23;;;7.00;;
6101;SDS011;3081;50.584;7.032;2023-01-26T00:23:58;17.00;;;8.17;;
6101;SDS011;3081;50.584;7.032;2023-01-26T00:26:26;15.37;;;8.20;;
6101;SDS011;3081;50.584;7.032;2023-01-26T00:28:53;15.83;;;7.33;;
6101;SDS011;3081;50.584;7.032;2023-01-26T00:31:21;20.00;;;8.23;;
6101;SDS011;3081;50.584;7.032;2023-01-26T00:33:49;11.77;;;5.60;;
6101;SDS011;3081;50.584;7.032;2023-01-26T00:36:16;10.73;;;5.70;;
6101;SDS011;3081;50.584;7.032;2023-01-26T00:38:43;16.90;;;7.83;;
6101;SDS011;3081;50.584;7.032;2023-01-26T00:41:12;16.47;;;7.83;;
6101;SDS011;3081;50.584;7.032;2023-01-26T00:43:59;17.60;;;8.57;;
6101;SDS011;3081;50.584;7.032;2023-01-26T00:46:26;17.93;;;7.60;;
6101;SDS011;3081;50.584;7.032;2023-01-26T00:48:53;24.23;;;8.90;;
6101;SDS011;3081;50.584;7.032;2023-01-26T00:51:20;17.23;;;7.57;;
6101;SDS011;3081;50.584;7.032;2023-01-26T00:53:47;28.73;;;10.10;;
6101;SDS011;3081;50.584;7.032;2023-01-26T00:56:15;18.30;;;7.70;;
6101;SDS011;3081;50.584;7.032;2023-01-26T00:58:42;19.60;;;8.30;;
6101;SDS011;3081;50.584;7.032;2023-01-26T01:01:09;19.60;;;7.30;;
6101;SDS011;3081;50.584;7.032;2023-01-26T01:03:37;22.53;;;8.43;;
6101;SDS011;3081;50.584;7.032;2023-01-26T01:06:04;30.27;;;9.20;;
6101;SDS011;3081;50.584;7.032;2023-01-26T01:08:31;24.50;;;9.50;;
6101;SDS011;3081;50.584;7.032;2023-01-26T01:11:05;25.23;;;8.20;;
6101;SDS011;3081;50.584;7.032;2023-01-26T01:13:34;43.10;;;11.23;;
6101;SDS011;3081;50.584;7.032;2023-01-26T01:16:03;30.53;;;9.80;;
6101;SDS011;3081;50.584;7.032;2023-01-26T01:18:30;26.90;;;11.10;;
6101;SDS011;3081;50.584;7.032;2023-01-26T01:20:57;36.13;;;11.50;;
6101;SDS011;3081;50.584;7.032;2023-01-26T01:23:26;45.23;;;11.50;;
6101;SDS011;3081;50.584;7.032;2023-01-26T01:25:56;30.03;;;10.70;;
6101;SDS011;3081;50.584;7.032;2023-01-26T01:28:23;22.90;;;9.33;;
6101;SDS011;3081;50.584;7.032;2023-01-26T01:30:51;34.23;;;10.53;;
6101;SDS011;3081;50.584;7.032;2023-01-26T01:33:18;33.63;;;11.87;;
6101;SDS011;3081;50.584;7.032;2023-01-26T01:35:54;71.57;;;13.43;;
6101;SDS011;3081;50.584;7.032;2023-01-26T01:38:22;66.77;;;15.03;;
6101;SDS011;3081;50.584;7.032;2023-01-26T01:40:49;90.13;;;15.60;;
6101;SDS011;3081;50.584;7.032;2023-01-26T01:43:16;59.90;;;14.50;;
6101;SDS011;3081;50.584;7.032;2023-01-26T01:45:43;93.53;;;15.47;;
6101;SDS011;3081;50.584;7.032;2023-01-26T01:48:14;26.70;;;10.47;;
6101;SDS011;3081;50.584;7.032;2023-01-26T01:50:46;15.23;;;7.00;;
6101;SDS011;3081;50.584;7.032;2023-01-26T01:53:16;9.23;;;4.27;;
6101;SDS011;3081;50.584;7.032;2023-01-26T01:55:49;34.97;;;7.97;;
6101;SDS011;3081;50.584;7.032;2023-01-26T01:58:18;14.80;;;6.03;;
6101;SDS011;3081;50.584;7.032;2023-01-26T02:00:45;10.83;;;5.97;;
6101;SDS011;3081;50.584;7.032;2023-01-26T02:03:13;19.43;;;8.27;;
6101;SDS011;3081;50.584;7.032;2023-01-26T02:05:48;24.40;;;8.27;;
6101;SDS011;3081;50.584;7.032;2023-01-26T02:08:20;61.30;;;12.80;;
6101;SDS011;3081;50.584;7.032;2023-01-26T02:10:51;44.90;;;13.57;;
6101;SDS011;3081;50.584;7.032;2023-01-26T02:13:21;35.23;;;10.70;;
6101;SDS011;3081;50.584;7.032;2023-01-26T02:15:49;28.87;;;10.00;;
6101;SDS011;3081;50.584;7.032;2023-01-26T02:18:18;25.80;;;9.00;;
6101;SDS011;3081;50.584;7.032;2023-01-26T02:20:46;12.60;;;5.90;;
6101;SDS011;3081;50.584;7.032;2023-01-26T02:23:21;24.50;;;7.60;;
6101;SDS011;3081;50.584;7.032;2023-01-26T02:26:01;31.73;;;9.00;;
6101;SDS011;3081;50.584;7.032;2023-01-26T02:28:33;24.33;;;9.90;;
6101;SDS011;3081;50.584;7.032;2023-01-26T02:30:59;34.53;;;9.27;;
6101;SDS011;3081;50.584;7.032;2023-01-26T02:33:27;34.60;;;9.00;;
6101;SDS011;3081;50.584;7.032;2023-01-26T02:35:56;38.23;;;9.67;;
6101;SDS011;3081;50.584;7.032;2023-01-26T02:38:24;21.10;;;7.37;;
6101;SDS011;3081;50.584;7.032;2023-01-26T02:40:55;25.93;;;9.30;;
6101;SDS011;3081;50.584;7.032;2023-01-26T02:43:26;29.80;;;10.90;;
6101;SDS011;3081;50.584;7.032;2023-01-26T02:45:53;19.30;;;8.50;;
6101;SDS011;3081;50.584;7.032;2023-01-26T02:48:19;31.10;;;12.03;;
6101;SDS011;3081;50.584;7.032;2023-01-26T02:51:00;21.93;;;8.20;;
6101;SDS011;3081;50.584;7.032;2023-01-26T02:53:27;22.80;;;8.60;;
6101;SDS011;3081;50.584;7.032;2023-01-26T02:55:54;26.60;;;9.40;;
6101;SDS011;3081;50.584;7.032;2023-01-26T02:58:20;20.67;;;9.33;;
6101;SDS011;3081;50.584;7.032;2023-01-26T03:00:49;27.40;;;11.10;;
6101;SDS011;3081;50.584;7.032;2023-01-26T03:03:17;21.67;;;8.53;;
6101;SDS011;3081;50.584;7.032;2023-01-26T03:05:46;21.20;;;8.73;;
6101;SDS011;3081;50.584;7.032;2023-01-26T03:08:13;17.60;;;7.93;;
6101;SDS011;3081;50.584;7.032;2023-01-26T03:10:40;28.00;;;11.13;;
6101;SDS011;3081;50.584;7.032;2023-01-26T03:13:07;35.93;;;12.43;;
6101;SDS011;3081;50.584;7.032;2023-01-26T03:15:34;13.80;;;4.83;;
6101;SDS011;3081;50.584;7.032;2023-01-26T03:18:18;16.50;;;7.60;;
6101;SDS011;3081;50.584;7.032;2023-01-26T03:21:04;22.03;;;8.43;;
6101;SDS011;3081;50.584;7.032;2023-01-26T03:23:52;9.50;;;5.20;;
6101;SDS011;3081;50.584;7.032;2023-01-26T03:26:36;11.40;;;5.70;;
6101;SDS011;3081;50.584;7.032;2023-01-26T03:29:21;11.87;;;6.00;;
6101;SDS011;3081;50.584;7.032;2023-01-26T03:31:48;26.60;;;11.27;;
6101;SDS011;3081;50.584;7.032;2023-01-26T03:34:16;27.30;;;11.50;;
6101;SDS011;3081;50.584;7.032;2023-01-26T03:36:44;21.37;;;9.60;;
6101;SDS011;3081;50.584;7.032;2023-01-26T03:39:11;26.30;;;9.00;;
6101;SDS011;3081;50.584;7.032;2023-01-26T03:41:59;11.00;;;4.87;;
6101;SDS011;3081;50.584;7.032;2023-01-26T03:44:43;21.37;;;9.33;;
6101;SDS011;3081;50.584;7.032;2023-01-26T03:47:28;18.37;;;8.77;;
6101;SDS011;3081;50.584;7.032;2023-01-26T03:50:15;12.77;;;4.87;;
6101;SDS011;3081;50.584;7.032;2023-01-26T03:53:00;18.47;;;7.70;;
6101;SDS011;3081;50.584;7.032;2023-01-26T03:55:44;21.23;;;10.20;;
6101;SDS011;3081;50.584;7.032;2023-01-26T03:58:29;5.33;;;2.57;;
6101;SDS011;3081;50.584;7.032;2023-01-26T04:00:56;14.33;;;7.27;;
6101;SDS011;3081;50.584;7.032;2023-01-26T04:03:23;22.33;;;9.87;;
6101;SDS011;3081;50.584;7.032;2023-01-26T04:06:09;22.67;;;8.97;;
6101;SDS011;3081;50.584;7.032;2023-01-26T04:08:53;19.93;;;9.47;;
6101;SDS011;3081;50.584;7.032;2023-01-26T04:11:20;21.00;;;10.80;;
6101;SDS011;3081;50.584;7.032;2023-01-26T04:13:47;27.27;;;11.23;;
6101;SDS011;3081;50.584;7.032;2023-01-26T04:16:31;21.13;;;8.73;;
6101;SDS011;3081;50.584;7.032;2023-01-26T04:19:15;18.97;;;9.00;;
6101;SDS011;3081;50.584;7.032;2023-01-26T04:22:01;20.70;;;9.17;;
6101;SDS011;3081;50.584;7.032;2023-01-26T04:24:27;17.33;;;8.43;;
6101;SDS011;3081;50.584;7.032;2023-01-26T04:26:54;20.27;;;8.33;;
6101;SDS011;3081;50.584;7.032;2023-01-26T04:29:21;27.17;;;9.20;;
6101;SDS011;3081;50.584;7.032;2023-01-26T04:31:48;18.27;;;9.77;;
6101;SDS011;3081;50.584;7.032;2023-01-26T04:34:15;20.43;;;8.70;;
6101;SDS011;3081;50.584;7.032;2023-01-26T04:36:42;24.80;;;9.73;;
6101;SDS011;3081;50.584;7.032;2023-01-26T04:39:10;20.23;;;8.03;;
6101;SDS011;3081;50.584;7.032;2023-01-26T04:41:37;20.00;;;9.03;;
6101;SDS011;3081;50.584;7.032;2023-01-26T04:44:04;16.70;;;7.93;;
6101;SDS011;3081;50.584;7.032;2023-01-26T04:46:31;20.13;;;9.90;;
6101;SDS011;3081;50.584;7.032;2023-01-26T04:48:58;24.17;;;9.70;;
6101;SDS011;3081;50.584;7.032;2023-01-26T04:51:25;17.03;;;7.80;;
6101;SDS011;3081;50.584;7.032;2023-01-26T04:53:52;23.73;;;9.53;;
6101;SDS011;3081;50.584;7.032;2023-01-26T04:56:21;21.83;;;10.57;;
6101;SDS011;3081;50.584;7.032;2023-01-26T04:58:49;20.50;;;8.80;;
6101;SDS011;3081;50.584;7.032;2023-01-26T05:01:17;22.87;;;11.20;;
6101;SDS011;3081;50.584;7.032;2023-01-26T05:03:44;25.33;;;10.40;;
6101;SDS011;3081;50.584;7.032;2023-01-26T05:06:11;15.60;;;6.53;;
6101;SDS011;3081;50.584;7.032;2023-01-26T05:08:38;21.53;;;9.10;;
6101;SDS011;3081;50.584;7.032;2023-01-26T05:11:05;21.07;;;10.83;;
6101;SDS011;3081;50.584;7.032;2023-01-26T05:13:34;20.83;;;8.93;;
6101;SDS011;3081;50.584;7.032;2023-01-26T05:16:01;23.80;;;10.57;;
6101;SDS011;3081;50.584;7.032;2023-01-26T05:18:29;27.27;;;11.30;;
6101;SDS011;3081;50.584;7.032;2023-01-26T05:20:56;25.23;;;9.60;;
6101;SDS011;3081;50.584;7.032;2023-01-26T05:23:23;29.63;;;10.13;;
6101;SDS011;3081;50.584;7.032;2023-01-26T05:25:50;31.93;;;10.83;;
6101;SDS011;3081;50.584;7.032;2023-01-26T05:28:17;23.17;;;9.03;;
6101;SDS011;3081;50.584;7.032;2023-01-26T05:30:45;22.53;;;7.30;;
6101;SDS011;3081;50.584;7.032;2023-01-26T05:33:12;14.80;;;7.07;;
6101;SDS011;3081;50.584;7.032;2023-01-26T05:35:40;21.33;;;8.50;;
6101;SDS011;3081;50.584;7.032;2023-01-26T05:38:06;18.57;;;8.47;;
6101;SDS011;3081;50.584;7.032;2023-01-26T05:40:33;15.30;;;7.20;;
6101;SDS011;3081;50.584;7.032;2023-01-26T05:43:00;24.43;;;10.77;;
6101;SDS011;3081;50.584;7.032;2023-01-26T05:45:27;19.50;;;8.57;;
6101;SDS011;3081;50.584;7.032;2023-01-26T05:47:55;25.40;;;11.00;;
6101;SDS011;3081;50.584;7.032;2023-01-26T05:50:22;21.50;;;8.27;;
6101;SDS011;3081;50.584;7.032;2023-01-26T05:52:49;24.83;;;10.50;;
6101;SDS011;3081;50.584;7.032;2023-01-26T05:55:16;20.90;;;9.17;;
6101;SDS011;3081;50.584;7.032;2023-01-26T05:57:43;21.03;;;8.60;;
6101;SDS011;3081;50.584;7.032;2023-01-26T06:00:11;21.57;;;8.40;;
6101;SDS011;3081;50.584;7.032;2023-01-26T06:02:39;20.77;;;8.87;;
6101;SDS011;3081;50.584;7.032;2023-01-26T06:05:08;19.27;;;8.87;;
6101;SDS011;3081;50.584;7.032;2023-01-26T06:07:35;19.03;;;7.70;;
6101;SDS011;3081;50.584;7.032;2023-01-26T06:10:02;28.43;;;8.10;;
6101;SDS011;3081;50.584;7.032;2023-01-26T06:12:29;28.40;;;10.70;;
6101;SDS011;3081;50.584;7.032;2023-01-26T06:14:59;22.70;;;8.63;;
6101;SDS011;3081;50.584;7.032;2023-01-26T06:17:26;25.00;;;9.07;;
6101;SDS011;3081;50.584;7.032;2023-01-26T06:19:53;26.87;;;10.40;;
6101;SDS011;3081;50.584;7.032;2023-01-26T06:22:22;29.03;;;10.57;;
6101;SDS011;3081;50.584;7.032;2023-01-26T06:24:49;21.43;;;9.83;;
6101;SDS011;3081;50.584;7.032;2023-01-26T06:27:16;25.20;;;10.27;;
6101;SDS011;3081;50.584;7.032;2023-01-26T06:29:44;24.30;;;10.20;;
6101;SDS011;3081;50.584;7.032;2023-01-26T06:32:11;30.10;;;11.33;;
6101;SDS011;3081;50.584;7.032;2023-01-26T06:34:38;28.33;;;11.67;;
6101;SDS011;3081;50.584;7.032;2023-01-26T06:37:05;33.30;;;10.87;;
6101;SDS011;3081;50.584;7.032;2023-01-26T06:39:34;26.13;;;10.50;;
6101;SDS011;3081;50.584;7.032;2023-01-26T06:42:01;25.80;;;11.27;;
6101;SDS011;3081;50.584;7.032;2023-01-26T06:44:28;26.53;;;11.23;;
6101;SDS011;3081;50.584;7.032;2023-01-26T06:46:55;34.80;;;11.90;;
6101;SDS011;3081;50.584;7.032;2023-01-26T06:49:22;29.00;;;12.53;;
6101;SDS011;3081;50.584;7.032;2023-01-26T06:51:51;27.60;;;12.50;;
6101;SDS011;3081;50.584;7.032;2023-01-26T06:54:22;35.57;;;14.27;;
6101;SDS011;3081;50.584;7.032;2023-01-26T06:56:50;25.70;;;12.73;;
6101;SDS011;3081;50.584;7.032;2023-01-26T06:59:17;30.03;;;12.30;;
6101;SDS011;3081;50.584;7.032;2023-01-26T07:01:44;29.00;;;12.75;;
6101;SDS011;3081;50.584;7.032;2023-01-26T07:04:13;27.93;;;10.50;;
6101;SDS011;3081;50.584;7.032;2023-01-26T07:06:42;30.73;;;11.57;;
6101;SDS011;3081;50.584;7.032;2023-01-26T07:09:09;26.33;;;10.63;;
6101;SDS011;3081;50.584;7.032;2023-01-26T07:11:36;25.37;;;9.40;;
6101;SDS011;3081;50.584;7.032;2023-01-26T07:14:05;30.67;;;12.17;;
6101;SDS011;3081;50.584;7.032;2023-01-26T07:16:32;22.57;;;11.00;;
6101;SDS011;3081;50.584;7.032;2023-01-26T07:18:59;33.80;;;11.40;;
6101;SDS011;3081;50.584;7.032;2023-01-26T07:21:26;19.80;;;9.07;;
6101;SDS011;3081;50.584;7.032;2023-01-26T07:23:53;15.17;;;7.70;;
6101;SDS011;3081;50.584;7.032;2023-01-26T07:26:21;23.97;;;11.43;;
6101;SDS011;3081;50.584;7.032;2023-01-26T07:28:48;21.57;;;9.13;;
6101;SDS011;3081;50.584;7.032;2023-01-26T07:31:17;24.93;;;11.47;;
6101;SDS011;3081;50.584;7.032;2023-01-26T07:33:44;32.67;;;11.90;;
6101;SDS011;3081;50.584;7.032;2023-01-26T07:36:10;25.67;;;9.60;;
6101;SDS011;3081;50.584;7.032;2023-01-26T07:38:37;25.13;;;10.73;;
6101;SDS011;3081;50.584;7.032;2023-01-26T07:41:05;33.43;;;13.67;;
6101;SDS011;3081;50.584;7.032;2023-01-26T07:43:34;17.53;;;7.50;;
6101;SDS011;3081;50.584;7.032;2023-01-26T07:46:02;30.93;;;11.20;;
6101;SDS011;3081;50.584;7.032;2023-01-26T07:48:30;25.17;;;11.00;;
6101;SDS011;3081;50.584;7.032;2023-01-26T07:50:59;24.40;;;9.97;;
6101;SDS011;3081;50.584;7.032;2023-01-26T07:53:27;31.97;;;11.27;;
6101;SDS011;3081;50.584;7.032;2023-01-26T07:56:04;28.40;;;10.97;;
6101;SDS011;3081;50.584;7.032;2023-01-26T07:58:32;26.27;;;10.80;;
6101;SDS011;3081;50.584;7.032;2023-01-26T08:01:03;28.90;;;11.30;;
6101;SDS011;3081;50.584;7.032;2023-01-26T08:03:33;22.87;;;9.60;;
6101;SDS011;3081;50.584;7.032;2023-01-26T08:06:00;31.70;;;12.03;;
6101;SDS011;3081;50.584;7.032;2023-01-26T08:08:27;25.17;;;10.80;;
6101;SDS011;3081;50.584;7.032;2023-01-26T08:10:57;21.30;;;8.87;;
6101;SDS011;3081;50.584;7.032;2023-01-26T08:13:27;31.20;;;12.20;;
6101;SDS011;3081;50.584;7.032;2023-01-26T08:15:54;18.43;;;9.03;;
6101;SDS011;3081;50.584;7.032;2023-01-26T08:18:25;23.70;;;9.60;;
6101;SDS011;3081;50.584;7.032;2023-01-26T08:20:53;22.53;;;9.33;;
6101;SDS011;3081;50.584;7.032;2023-01-26T08:23:20;16.50;;;7.83;;
6101;SDS011;3081;50.584;7.032;2023-01-26T08:25:47;11.50;;;5.23;;
6101;SDS011;3081;50.584;7.032;2023-01-26T08:28:14;21.10;;;9.33;;
6101;SDS011;3081;50.584;7.032;2023-01-26T08:30:41;21.27;;;8.90;;
6101;SDS011;3081;50.584;7.032;2023-01-26T08:33:08;21.07;;;10.33;;
6101;SDS011;3081;50.584;7.032;2023-01-26T08:35:35;27.40;;;10.70;;
6101;SDS011;3081;50.584;7.032;2023-01-26T08:38:03;21.63;;;8.90;;
6101;SDS011;3081;50.584;7.032;2023-01-26T08:40:30;24.20;;;10.00;;
6101;SDS011;3081;50.584;7.032;2023-01-26T08:42:58;26.80;;;10.50;;
6101;SDS011;3081;50.584;7.032;2023-01-26T08:45:26;24.20;;;9.67;;
6101;SDS011;3081;50.584;7.032;2023-01-26T08:47:53;33.57;;;11.50;;
6101;SDS011;3081;50.584;7.032;2023-01-26T08:50:20;23.20;;;10.00;;
6101;SDS011;3081;50.584;7.032;2023-01-26T08:52:47;19.10;;;9.67;;
6101;SDS011;3081;50.584;7.032;2023-01-26T08:55:15;25.90;;;11.07;;
6101;SDS011;3081;50.584;7.032;2023-01-26T08:57:42;27.50;;;10.83;;
6101;SDS011;3081;50.584;7.032;2023-01-26T09:00:11;21.87;;;9.17;;
6101;SDS011;3081;50.584;7.032;2023-01-26T09:02:39;21.83;;;10.27;;
6101;SDS011;3081;50.584;7.032;2023-01-26T09:05:07;23.27;;;12.33;;
6101;SDS011;3081;50.584;7.032;2023-01-26T09:07:34;26.63;;;10.80;;
6101;SDS011;3081;50.584;7.032;2023-01-26T09:10:01;26.00;;;9.77;;
6101;SDS011;3081;50.584;7.032;2023-01-26T09:12:30;21.90;;;9.43;;
6101;SDS011;3081;50.584;7.032;2023-01-26T09:14:57;23.70;;;10.10;;
6101;SDS011;3081;50.584;7.032;2023-01-26T09:17:24;20.70;;;9.93;;
6101;SDS011;3081;50.584;7.032;2023-01-26T09:19:50;22.90;;;10.10;;
6101;SDS011;3081;50.584;7.032;2023-01-26T09:22:17;24.00;;;10.27;;
6101;SDS011;3081;50.584;7.032;2023-01-26T09:24:44;21.23;;;9.83;;
6101;SDS011;3081;50.584;7.032;2023-01-26T09:27:11;22.37;;;9.63;;
6101;SDS011;3081;50.584;7.032;2023-01-26T09:29:39;20.47;;;9.67;;
6101;SDS011;3081;50.584;7.032;2023-01-26T09:32:06;26.93;;;10.67;;
6101;SDS011;3081;50.584;7.032;2023-01-26T09:34:33;26.00;;;10.23;;
6101;SDS011;3081;50.584;7.032;2023-01-26T09:37:00;27.23;;;11.03;;
6101;SDS011;3081;50.584;7.032;2023-01-26T09:39:27;33.10;;;11.73;;
6101;SDS011;3081;50.584;7.032;2023-01-26T09:42:14;19.40;;;8.67;;
6101;SDS011;3081;50.584;7.032;2023-01-26T09:44:58;36.43;;;13.10;;
6101;SDS011;3081;50.584;7.032;2023-01-26T09:47:33;38.27;;;14.03;;
6101;SDS011;3081;50.584;7.032;2023-01-26T09:50:09;41.10;;;15.53;;
6101;SDS011;3081;50.584;7.032;2023-01-26T09:52:41;28.93;;;11.30;;
6101;SDS011;3081;50.584;7.032;2023-01-26T09:55:16;33.17;;;13.57;;
6101;SDS011;3081;50.584;7.032;2023-01-26T09:57:46;23.93;;;10.47;;
6101;SDS011;3081;50.584;7.032;2023-01-26T10:00:18;21.27;;;7.83;;
6101;SDS011;3081;50.584;7.032;2023-01-26T10:02:54;30.73;;;12.30;;
6101;SDS011;3081;50.584;7.032;2023-01-26T10:05:31;25.07;;;9.40;;
6101;SDS011;3081;50.584;7.032;2023-01-26T10:08:07;23.73;;;9.90;;
6101;SDS011;3081;50.584;7.032;2023-01-26T10:10:37;24.83;;;11.47;;
6101;SDS011;3081;50.584;7.032;2023-01-26T10:13:11;14.80;;;6.10;;
6101;SDS011;3081;50.584;7.032;2023-01-26T10:15:41;32.97;;;12.40;;
6101;SDS011;3081;50.584;7.032;2023-01-26T10:18:12;25.30;;;11.43;;
6101;SDS011;3081;50.584;7.032;2023-01-26T10:20:44;28.23;;;11.80;;
6101;SDS011;3081;50.584;7.032;2023-01-26T10:23:15;31.07;;;12.17;;
6101;SDS011;3081;50.584;7.032;2023-01-26T10:25:45;40.23;;;13.00;;
6101;SDS011;3081;50.584;7.032;2023-01-26T10:28:15;25.90;;;9.40;;
6101;SDS011;3081;50.584;7.032;2023-01-26T10:30:46;26.43;;;9.47;;
6101;SDS011;3081;50.584;7.032;2023-01-26T10:33:17;32.50;;;11.90;;
6101;SDS011;3081;50.584;7.032;2023-01-26T10:35:48;13.50;;;6.53;;
6101;SDS011;3081;50.584;7.032;2023-01-26T10:38:25;17.63;;;6.40;;
6101;SDS011;3081;50.584;7.032;2023-01-26T10:41:21;11.57;;;5.27;;
6101;SDS011;3081;50.584;7.032;2023-01-26T10:43:50;10.00;;;5.23;;
6101;SDS011;3081;50.584;7.032;2023-01-26T10:46:30;16.93;;;7.30;;
6101;SDS011;3081;50.584;7.032;2023-01-26T10:48:59;19.50;;;7.33;;
6101;SDS011;3081;50.584;7.032;2023-01-26T10:51:29;34.17;;;13.07;;
6101;SDS011;3081;50.584;7.032;2023-01-26T10:54:13;29.33;;;12.37;;
6101;SDS011;3081;50.584;7.032;2023-01-26T10:56:46;46.97;;;12.73;;
6101;SDS011;3081;50.584;7.032;2023-01-26T10:59:18;25.40;;;9.73;;
6101;SDS011;3081;50.584;7.032;2023-01-26T11:01:59;33.23;;;11.90;;
6101;SDS011;3081;50.584;7.032;2023-01-26T11:04:28;19.73;;;7.80;;
6101;SDS011;3081;50.584;7.032;2023-01-26T11:06:59;24.77;;;10.47;;
6101;SDS011;3081;50.584;7.032;2023-01-26T11:09:50;29.73;;;12.10;;
6101;SDS011;3081;50.584;7.032;2023-01-26T11:12:17;37.43;;;13.77;;
6101;SDS011;3081;50.584;7.032;2023-01-26T11:14:57;32.33;;;11.80;;
6101;SDS011;3081;50.584;7.032;2023-01-26T11:17:28;28.80;;;11.80;;
6101;SDS011;3081;50.584;7.032;2023-01-26T11:20:04;21.23;;;8.80;;
6101;SDS011;3081;50.584;7.032;2023-01-26T11:22:40;29.00;;;10.90;;
6101;SDS011;3081;50.584;7.032;2023-01-26T11:25:14;18.87;;;7.20;;
6101;SDS011;3081;50.584;7.032;2023-01-26T11:27:50;31.63;;;10.90;;
6101;SDS011;3081;50.584;7.032;2023-01-26T11:30:35;26.57;;;9.90;;
6101;SDS011;3081;50.584;7.032;2023-01-26T11:33:17;30.17;;;10.53;;
6101;SDS011;3081;50.584;7.032;2023-01-26T11:35:51;22.73;;;9.50;;
6101;SDS011;3081;50.584;7.032;2023-01-26T11:38:31;30.53;;;11.80;;
6101;SDS011;3081;50.584;7.032;2023-01-26T11:41:05;29.90;;;11.47;;
6101;SDS011;3081;50.584;7.032;2023-01-26T11:43:55;24.87;;;10.77;;
6101;SDS011;3081;50.584;7.032;2023-01-26T11:46:39;24.93;;;9.03;;
6101;SDS011;3081;50.584;7.032;2023-01-26T11:49:21;18.63;;;6.63;;
6101;SDS011;3081;50.584;7.032;2023-01-26T11:52:03;32.70;;;9.73;;
6101;SDS011;3081;50.584;7.032;2023-01-26T11:54:39;27.77;;;12.30;;
6101;SDS011;3081;50.584;7.032;2023-01-26T11:57:19;23.63;;;9.67;;
6101;SDS011;3081;50.584;7.032;2023-01-26T11:59:53;22.73;;;9.70;;
6101;SDS011;3081;50.584;7.032;2023-01-26T12:02:27;28.20;;;11.77;;
6101;SDS011;3081;50.584;7.032;2023-01-26T12:04:58;30.87;;;10.70;;
6101;SDS011;3081;50.584;7.032;2023-01-26T12:07:30;25.70;;;11.87;;
6101;SDS011;3081;50.584;7.032;2023-01-26T12:10:15;34.90;;;13.53;;
6101;SDS011;3081;50.584;7.032;2023-01-26T12:12:45;33.20;;;11.43;;
6101;SDS011;3081;50.584;7.032;2023-01-26T12:15:16;27.20;;;10.60;;
6101;SDS011;3081;50.584;7.032;2023-01-26T12:17:49;26.40;;;10.30;;
6101;SDS011;3081;50.584;7.032;2023-01-26T12:20:27;26.97;;;10.60;;
6101;SDS011;3081;50.584;7.032;2023-01-26T12:23:01;16.63;;;7.93;;
6101;SDS011;3081;50.584;7.032;2023-01-26T12:25:31;17.43;;;7.97;;
6101;SDS011;3081;50.584;7.032;2023-01-26T12:28:03;26.80;;;9.70;;
6101;SDS011;3081;50.584;7.032;2023-01-26T12:30:40;32.53;;;10.47;;
6101;SDS011;3081;50.584;7.032;2023-01-26T12:33:12;27.93;;;9.30;;
6101;SDS011;3081;50.584;7.032;2023-01-26T12:35:47;29.50;;;11.33;;
6101;SDS011;3081;50.584;7.032;2023-01-26T12:38:19;21.80;;;8.00;;
6101;SDS011;3081;50.584;7.032;2023-01-26T12:40:56;24.23;;;9.97;;
6101;SDS011;3081;50.584;7.032;2023-01-26T12:43:40;14.60;;;5.60;;
6101;SDS011;3081;50.584;7.032;2023-01-26T12:46:20;17.30;;;6.10;;
6101;SDS011;3081;50.584;7.032;2023-01-26T12:48:49;11.20;;;5.10;;
6101;SDS011;3081;50.584;7.032;2023-01-26T12:51:22;10.83;;;4.80;;
6101;SDS011;3081;50.584;7.032;2023-01-26T12:53:54;16.63;;;7.10;;
6101;SDS011;3081;50.584;7.032;2023-01-26T12:56:24;16.60;;;5.70;;
6101;SDS011;3081;50.584;7.032;2023-01-26T12:58:55;19.97;;;7.13;;
6101;SDS011;3081;50.584;7.032;2023-01-26T13:01:26;13.70;;;6.93;;
6101;SDS011;3081;50.584;7.032;2023-01-26T13:04:06;23.67;;;8.20;;
6101;SDS011;3081;50.584;7.032;2023-01-26T13:06:36;21.80;;;6.53;;
6101;SDS011;3081;50.584;7.032;2023-01-26T13:09:18;8.03;;;3.83;;
6101;SDS011;3081;50.584;7.032;2023-01-26T13:11:48;20.20;;;7.93;;
6101;SDS011;3081;50.584;7.032;2023-01-26T13:14:32;15.20;;;5.50;;
6101;SDS011;3081;50.584;7.032;2023-01-26T13:26:20;26.80;;;10.67;;
6101;SDS011;3081;50.584;7.032;2023-01-26T13:29:26;22.27;;;7.77;;
6101;SDS011;3081;50.584;7.032;2023-01-26T13:31:57;13.23;;;5.83;;
6101;SDS011;3081;50.584;7.032;2023-01-26T13:34:27;10.93;;;4.60;;
6101;SDS011;3081;50.584;7.032;2023-01-26T13:36:58;12.57;;;5.10;;
6101;SDS011;3081;50.584;7.032;2023-01-26T13:39:33;17.80;;;7.20;;
6101;SDS011;3081;50.584;7.032;2023-01-26T13:42:09;16.53;;;7.50;;
6101;SDS011;3081;50.584;7.032;2023-01-26T13:44:43;13.23;;;5.90;;
6101;SDS011;3081;50.584;7.032;2023-01-26T13:47:16;14.87;;;5.50;;
6101;SDS011;3081;50.584;7.032;2023-01-26T13:49:49;16.37;;;6.07;;
6101;SDS011;3081;50.584;7.032;2023-01-26T13:52:17;14.13;;;5.57;;
6101;SDS011;3081;50.584;7.032;2023-01-26T13:54:45;19.60;;;8.33;;
6101;SDS011;3081;50.584;7.032;2023-01-26T13:57:20;17.30;;;6.43;;
6101;SDS011;3081;50.584;7.032;2023-01-26T13:59:48;22.17;;;7.73;;
6101;SDS011;3081;50.584;7.032;2023-01-26T14:02:23;13.60;;;6.20;;
6101;SDS011;3081;50.584;7.032;2023-01-26T14:04:51;9.60;;;4.30;;
6101;SDS011;3081;50.584;7.032;2023-01-26T14:07:21;10.80;;;5.10;;
6101;SDS011;3081;50.584;7.032;2023-01-26T14:09:52;13.00;;;5.80;;
6101;SDS011;3081;50.584;7.032;2023-01-26T14:12:23;6.30;;;3.50;;
6101;SDS011;3081;50.584;7.032;2023-01-26T14:14:53;11.80;;;4.07;;
6101;SDS011;3081;50.584;7.032;2023-01-26T14:17:24;6.30;;;3.40;;
6101;SDS011;3081;50.584;7.032;2023-01-26T14:19:53;10.13;;;4.53;;
6101;SDS011;3081;50.584;7.032;2023-01-26T14:22:20;9.90;;;4.60;;
6101;SDS011;3081;50.584;7.032;2023-01-26T14:24:48;18.10;;;5.90;;
6101;SDS011;3081;50.584;7.032;2023-01-26T14:27:28;12.47;;;5.60;;
6101;SDS011;3081;50.584;7.032;2023-01-26T14:29:59;11.30;;;4.97;;
6101;SDS011;3081;50.584;7.032;2023-01-26T14:32:26;10.70;;;4.90;;
6101;SDS011;3081;50.584;7.032;2023-01-26T14:34:54;19.50;;;8.73;;
6101;SDS011;3081;50.584;7.032;2023-01-26T14:37:23;8.90;;;5.10;;
6101;SDS011;3081;50.584;7.032;2023-01-26T14:42:42;11.60;;;6.10;;
6101;SDS011;3081;50.584;7.032;2023-01-26T14:45:10;13.73;;;4.00;;
6101;SDS011;3081;50.584;7.032;2023-01-26T14:47:38;9.17;;;5.33;;
6101;SDS011;3081;50.584;7.032;2023-01-26T14:50:09;20.00;;;6.90;;
6101;SDS011;3081;50.584;7.032;2023-01-26T14:52:42;15.30;;;6.57;;
6101;SDS011;3081;50.584;7.032;2023-01-26T14:55:11;17.77;;;5.87;;
6101;SDS011;3081;50.584;7.032;2023-01-26T14:57:44;17.63;;;6.60;;
6101;SDS011;3081;50.584;7.032;2023-01-26T15:00:19;35.20;;;28.63;;
6101;SDS011;3081;50.584;7.032;2023-01-26T15:02:51;15.47;;;6.33;;
6101;SDS011;3081;50.584;7.032;2023-01-26T15:05:20;12.63;;;5.13;;
6101;SDS011;3081;50.584;7.032;2023-01-26T15:07:50;10.93;;;3.77;;
6101;SDS011;3081;50.584;7.032;2023-01-26T15:10:25;18.33;;;6.20;;
6101;SDS011;3081;50.584;7.032;2023-01-26T15:13:01;20.93;;;7.20;;
6101;SDS011;3081;50.584;7.032;2023-01-26T15:15:32;8.23;;;4.30;;
6101;SDS011;3081;50.584;7.032;2023-01-26T15:18:01;8.93;;;4.20;;
6101;SDS011;3081;50.584;7.032;2023-01-26T15:20:40;11.03;;;4.40;;
6101;SDS011;3081;50.584;7.032;2023-01-26T15:23:22;6.60;;;3.70;;
6101;SDS011;3081;50.584;7.032;2023-01-26T15:25:52;5.47;;;3.17;;
6101;SDS011;3081;50.584;7.032;2023-01-26T15:28:22;12.10;;;3.70;;
6101;SDS011;3081;50.584;7.032;2023-01-26T15:30:51;10.70;;;5.00;;
6101;SDS011;3081;50.584;7.032;2023-01-26T15:36:20;13.93;;;5.13;;